Airport View

Enter AWOS ICAO identifier for current METAR.

ex. KFNL

KLBE 121150Z AUTO 29006KT 10SM OVC018 M02/M03 A3002 RMK AO2

12 Nov 2019 11:50

Phone: 724-537-0671

Other Area AWOS: K2G9 - KAGC - KIDI - KJST

TAF AMD KLBE 120913Z 1209/1306 31012KT 3SM -SN OVC006 FM121100 31010G18KT 6SM -SN OVC010 FM121800 31012G20KT 3SM -SN OVC015 FM130000 34012G20KT P6SM BKN015